Time;durP1;ratioP1;P1;durP2;ratioP2;P2;SDS_P1;SDS_P2;PMS_P1;PMS_P2;Temp;Humidity;BMP_temperature;BMP_pressure;BME280_temperature;BME280_humidity;BME280_pressure;Samples;Min_cycle;Max_cycle;Signal;HPM_P1;HPM_P2
2021/05/22 00:00:27;;;;;;;1.60;1.50;;;13.80;99.90;;;;;;5059506;28;20513;-70
2021/05/22 00:02:55;;;;;;;1.98;1.88;;;13.90;99.90;;;;;;5053394;28;20228;-70
2021/05/22 00:05:22;;;;;;;1.52;1.42;;;13.60;99.90;;;;;;5058679;28;20204;-69
2021/05/22 00:07:49;;;;;;;2.65;2.05;;;13.90;99.90;;;;;;5059199;28;20211;-69
2021/05/22 00:10:16;;;;;;;2.60;1.40;;;13.80;99.90;;;;;;5059031;28;20222;-69
2021/05/22 00:12:45;;;;;;;1.75;1.65;;;13.80;99.90;;;;;;5052497;28;20260;-70
2021/05/22 00:15:15;;;;;;;2.33;1.70;;;13.80;99.90;;;;;;5052469;28;20429;-70
2021/05/22 00:17:43;;;;;;;1.45;1.33;;;13.80;99.90;;;;;;5052811;28;20503;-70
2021/05/22 00:20:11;;;;;;;2.22;1.73;;;13.70;99.90;;;;;;5051508;28;20199;-69
2021/05/22 00:22:40;;;;;;;3.53;1.60;;;13.70;99.90;;;;;;5057230;28;20235;-71
2021/05/22 00:25:09;;;;;;;2.22;2.03;;;13.80;99.90;;;;;;5054627;28;20265;-69
2021/05/22 00:27:37;;;;;;;2.60;2.00;;;13.80;99.90;;;;;;5053676;28;20561;-69
2021/05/22 00:30:06;;;;;;;2.10;1.70;;;13.90;99.90;;;;;;5054797;28;20204;-70
2021/05/22 00:32:33;;;;;;;4.43;1.70;;;14.00;99.90;;;;;;5051767;28;20597;-70
2021/05/22 00:35:00;;;;;;;1.60;1.38;;;14.00;99.90;;;;;;5050572;28;20265;-70
2021/05/22 00:37:27;;;;;;;1.83;1.33;;;13.90;99.90;;;;;;5058737;28;20215;-70
2021/05/22 00:39:54;;;;;;;1.80;1.70;;;13.90;99.90;;;;;;5057978;28;20211;-70
2021/05/22 00:42:23;;;;;;;2.15;1.50;;;14.10;99.90;;;;;;5058338;28;20207;-70
2021/05/22 00:45:16;;;;;;;1.40;1.05;;;14.00;99.90;;;;;;5058907;28;20214;-70
2021/05/22 00:47:52;;;;;;;1.70;1.50;;;14.10;99.90;;;;;;5057157;28;20204;-70
2021/05/22 00:50:29;;;;;;;1.92;1.55;;;13.90;99.90;;;;;;5058448;28;20219;-70
2021/05/22 00:52:56;;;;;;;1.50;1.40;;;14.00;99.90;;;;;;5058828;28;20617;-70
2021/05/22 00:55:24;;;;;;;6.50;1.92;;;14.00;99.90;;;;;;5057548;28;20498;-69
2021/05/22 00:57:52;;;;;;;1.67;1.58;;;13.90;99.90;;;;;;5058280;28;20203;-69
2021/05/22 01:00:29;;;;;;;2.72;2.15;;;13.70;99.90;;;;;;5057825;28;20398;-71
2021/05/22 01:02:56;;;;;;;1.73;1.45;;;13.70;99.90;;;;;;5059116;28;20662;-70
2021/05/22 01:05:23;;;;;;;1.83;1.50;;;13.70;99.90;;;;;;5056230;28;20210;-69
2021/05/22 01:07:50;;;;;;;2.00;1.90;;;13.80;99.90;;;;;;5057641;28;20278;-70
2021/05/22 01:10:17;;;;;;;1.50;1.40;;;13.90;99.90;;;;;;5056605;28;20224;-69
2021/05/22 01:12:49;;;;;;;1.73;1.60;;;13.80;99.90;;;;;;5058733;28;20219;-69
2021/05/22 01:15:26;;;;;;;1.75;1.40;;;13.80;99.90;;;;;;5052395;28;20552;-71
2021/05/22 01:17:54;;;;;;;2.70;1.60;;;13.90;99.90;;;;;;5058613;28;20207;-70
2021/05/22 01:20:47;;;;;;;1.75;1.65;;;13.80;99.90;;;;;;5052396;28;20210;-70
2021/05/22 01:23:21;;;;;;;1.55;1.45;;;13.70;99.90;;;;;;5056811;28;20294;-71
2021/05/22 01:25:51;;;;;;;1.67;1.52;;;13.60;99.90;;;;;;5054378;28;20204;-70
2021/05/22 01:28:18;;;;;;;4.82;1.75;;;13.60;99.90;;;;;;5056400;28;20214;-70
2021/05/22 01:30:47;;;;;;;1.50;1.40;;;13.70;99.90;;;;;;5048367;28;20236;-70
2021/05/22 01:33:15;;;;;;;1.67;1.30;;;13.70;99.90;;;;;;5053050;28;20494;-69
2021/05/22 01:35:42;;;;;;;4.90;1.60;;;13.50;99.90;;;;;;5057916;28;20211;-71
2021/05/22 01:38:09;;;;;;;1.58;1.45;;;13.60;99.90;;;;;;5058319;28;20203;-71
2021/05/22 01:40:38;;;;;;;1.63;1.52;;;13.50;99.90;;;;;;5052880;28;20545;-70
2021/05/22 01:43:07;;;;;;;1.88;1.77;;;13.60;99.90;;;;;;5083464;28;20642;-70
2021/05/22 01:45:41;;;;;;;1.73;1.60;;;13.50;99.90;;;;;;5053054;28;20211;-70
2021/05/22 01:48:13;;;;;;;4.43;2.00;;;13.50;99.90;;;;;;5048022;28;20206;-70
2021/05/22 01:50:43;;;;;;;1.65;1.55;;;13.40;99.90;;;;;;5046380;28;20196;-70
2021/05/22 01:53:12;;;;;;;1.42;1.30;;;13.30;99.90;;;;;;5054613;28;20207;-70
2021/05/22 01:55:40;;;;;;;1.30;1.20;;;13.20;99.90;;;;;;5050069;28;20211;-70
2021/05/22 01:58:10;;;;;;;2.30;1.42;;;13.20;99.90;;;;;;5049701;28;20204;-70
2021/05/22 02:00:44;;;;;;;1.98;1.52;;;13.40;99.90;;;;;;5048609;28;20248;-70
2021/05/22 02:03:25;;;;;;;1.40;1.30;;;13.50;99.90;;;;;;5045594;28;20581;-70
2021/05/22 02:05:55;;;;;;;1.42;1.33;;;13.30;99.90;;;;;;5055709;28;20508;-70
2021/05/22 02:08:24;;;;;;;1.65;1.55;;;13.30;99.90;;;;;;5057424;28;20222;-71
2021/05/22 02:10:51;;;;;;;1.50;1.40;;;13.30;99.90;;;;;;5057859;28;20199;-70
2021/05/22 02:13:19;;;;;;;1.33;1.23;;;13.40;99.90;;;;;;5055164;28;20303;-71
2021/05/22 02:15:58;;;;;;;1.50;1.40;;;13.50;99.90;;;;;;5047990;28;20228;-71
2021/05/22 02:18:28;;;;;;;1.42;1.33;;;14.30;99.90;;;;;;5054134;28;20211;-69
2021/05/22 02:20:57;;;;;;;1.92;1.80;;;13.80;99.90;;;;;;5060091;28;20203;-70
2021/05/22 02:23:25;;;;;;;3.55;2.10;;;13.80;99.90;;;;;;5059354;28;20231;-70
2021/05/22 02:25:57;;;;;;;1.38;1.30;;;13.70;99.90;;;;;;5061994;28;20214;-69
2021/05/22 02:28:29;;;;;;;1.58;1.48;;;13.80;99.90;;;;;;5060822;28;20222;-69
2021/05/22 02:30:57;;;;;;;1.05;1.02;;;13.90;99.90;;;;;;5060111;28;20223;-70
2021/05/22 02:33:24;;;;;;;1.33;1.20;;;13.70;99.90;;;;;;5058007;28;20203;-69
2021/05/22 02:35:54;;;;;;;4.32;1.33;;;13.80;99.90;;;;;;5061297;28;20203;-69
2021/05/22 02:38:26;;;;;;;2.03;1.83;;;13.90;99.90;;;;;;5061414;28;20409;-69
2021/05/22 02:40:59;;;;;;;1.20;1.20;;;14.00;99.90;;;;;;5059298;28;20231;-71
2021/05/22 02:43:28;;;;;;;1.25;1.23;;;14.20;99.90;;;;;;5061556;28;20223;-70
2021/05/22 02:45:56;;;;;;;2.60;1.60;;;13.80;99.90;;;;;;5060158;28;20454;-71
2021/05/22 02:48:25;;;;;;;1.40;1.30;;;13.70;99.90;;;;;;5057963;28;20207;-71
2021/05/22 02:50:53;;;;;;;1.75;1.52;;;13.80;99.90;;;;;;5058853;28;20510;-70
2021/05/22 02:53:23;;;;;;;2.38;1.33;;;13.70;99.90;;;;;;5056763;28;20429;-71
2021/05/22 02:55:52;;;;;;;2.17;1.85;;;13.60;99.90;;;;;;5061273;28;20203;-69
2021/05/22 02:58:20;;;;;;;2.80;2.05;;;13.50;99.90;;;;;;5059009;28;20249;-71
2021/05/22 03:00:48;;;;;;;1.83;1.15;;;13.50;99.90;;;;;;5059742;28;20520;-70
2021/05/22 03:03:17;;;;;;;2.20;1.67;;;13.30;99.90;;;;;;5055800;28;20239;-70
2021/05/22 03:05:45;;;;;;;1.70;1.60;;;13.40;99.90;;;;;;5055483;28;20204;-71
2021/05/22 03:08:12;;;;;;;2.25;2.05;;;13.40;99.90;;;;;;5060657;28;20214;-71
2021/05/22 03:10:39;;;;;;;1.88;1.77;;;13.20;99.90;;;;;;5059499;28;20253;-70
2021/05/22 03:13:06;;;;;;;2.10;1.55;;;13.30;99.90;;;;;;5059700;28;20218;-70
2021/05/22 03:15:34;;;;;;;1.80;1.65;;;13.40;99.90;;;;;;5060121;28;20229;-70
2021/05/22 03:18:01;;;;;;;1.60;1.50;;;13.40;99.90;;;;;;5045374;28;20204;-70
2021/05/22 03:20:28;;;;;;;1.55;1.40;;;13.40;99.90;;;;;;5053073;28;20211;-69
2021/05/22 03:22:55;;;;;;;2.05;1.60;;;13.30;99.90;;;;;;5060780;28;20216;-69
2021/05/22 03:25:22;;;;;;;1.88;1.73;;;13.40;99.90;;;;;;5046815;28;20243;-70
2021/05/22 03:27:49;;;;;;;1.90;1.80;;;13.40;99.90;;;;;;5051904;28;20212;-69
2021/05/22 03:30:17;;;;;;;2.35;2.15;;;13.50;99.90;;;;;;5052640;28;20310;-70
2021/05/22 03:32:44;;;;;;;1.67;1.40;;;13.10;99.90;;;;;;5060246;28;20227;-72
2021/05/22 03:35:11;;;;;;;1.80;1.70;;;13.50;99.90;;;;;;5060075;28;20206;-71
2021/05/22 03:37:38;;;;;;;5.00;2.30;;;13.50;99.90;;;;;;5047219;28;20208;-70
2021/05/22 03:40:07;;;;;;;3.83;1.92;;;13.60;99.90;;;;;;5054757;28;20467;-70
2021/05/22 03:42:35;;;;;;;1.80;1.70;;;13.80;99.90;;;;;;5058914;28;20204;-70
2021/05/22 03:45:03;;;;;;;1.42;1.38;;;13.80;99.90;;;;;;5052969;28;20220;-70
2021/05/22 03:47:30;;;;;;;2.15;1.95;;;13.90;99.90;;;;;;5059704;28;20207;-71
2021/05/22 03:49:57;;;;;;;6.10;1.80;;;14.00;99.90;;;;;;5059149;28;20234;-71
2021/05/22 03:52:24;;;;;;;2.08;1.75;;;14.20;99.90;;;;;;5059112;28;20214;-70
2021/05/22 03:54:52;;;;;;;4.40;1.60;;;14.10;99.90;;;;;;5059435;28;20279;-70
2021/05/22 03:57:19;;;;;;;1.50;1.40;;;14.10;99.90;;;;;;5059398;28;20219;-70
2021/05/22 03:59:46;;;;;;;2.75;1.90;;;13.80;99.90;;;;;;5058723;28;20207;-70
2021/05/22 04:02:13;;;;;;;4.00;1.85;;;13.60;99.90;;;;;;5059286;28;20215;-70
2021/05/22 04:04:40;;;;;;;1.67;1.58;;;13.70;99.90;;;;;;5052212;28;20246;-69
2021/05/22 04:07:07;;;;;;;2.03;1.88;;;13.70;99.90;;;;;;5047138;28;20253;-70
2021/05/22 04:09:34;;;;;;;12.73;2.70;;;13.70;99.90;;;;;;5053428;28;20207;-70
2021/05/22 04:12:02;;;;;;;2.35;2.15;;;13.90;99.90;;;;;;5059419;28;20210;-70
2021/05/22 04:14:29;;;;;;;2.00;1.80;;;13.90;99.90;;;;;;5060000;28;20212;-70
2021/05/22 04:16:56;;;;;;;2.85;1.67;;;13.90;99.90;;;;;;5058381;28;20196;-69
2021/05/22 04:19:23;;;;;;;1.65;1.55;;;13.90;99.90;;;;;;5048675;28;20228;-71
2021/05/22 04:21:50;;;;;;;2.78;2.00;;;14.00;99.90;;;;;;5057463;28;20478;-72
2021/05/22 04:24:17;;;;;;;3.53;1.90;;;14.20;99.90;;;;;;5051130;28;20228;-71
2021/05/22 04:26:44;;;;;;;3.88;1.85;;;14.20;99.90;;;;;;5054548;28;20208;-71
2021/05/22 04:29:12;;;;;;;1.90;1.70;;;14.30;99.90;;;;;;5040982;28;20204;-71
2021/05/22 04:31:39;;;;;;;3.15;2.25;;;14.40;99.90;;;;;;5041541;28;20557;-70
2021/05/22 04:34:09;;;;;;;1.95;1.80;;;14.60;99.90;;;;;;5043945;28;20391;-70
2021/05/22 04:36:36;;;;;;;1.92;1.83;;;14.80;99.90;;;;;;5053028;28;20208;-71
2021/05/22 04:39:05;;;;;;;3.53;2.50;;;14.70;99.90;;;;;;5058816;28;20243;-70
2021/05/22 04:41:32;;;;;;;2.10;1.90;;;14.90;99.90;;;;;;5049882;28;20243;-71
2021/05/22 04:43:59;;;;;;;2.58;1.70;;;14.90;99.90;;;;;;5058392;28;20231;-71
2021/05/22 04:46:26;;;;;;;2.28;2.10;;;15.00;99.90;;;;;;5058525;28;20208;-71
2021/05/22 04:48:55;;;;;;;2.20;2.00;;;14.90;99.90;;;;;;5058719;28;20323;-70
2021/05/22 04:51:24;;;;;;;3.28;2.05;;;14.80;99.90;;;;;;5055460;28;20212;-71
2021/05/22 04:53:59;;;;;;;2.25;1.73;;;15.00;99.90;;;;;;5058129;28;20602;-70
2021/05/22 04:56:26;;;;;;;1.73;1.63;;;15.10;99.90;;;;;;5058621;28;20216;-70
2021/05/22 04:58:53;;;;;;;1.55;1.48;;;15.10;99.90;;;;;;5058489;28;20222;-70
2021/05/22 05:01:20;;;;;;;3.20;1.60;;;14.90;99.90;;;;;;5057058;28;20208;-70
2021/05/22 05:03:47;;;;;;;2.28;1.77;;;14.70;99.90;;;;;;5052240;28;20546;-70
2021/05/22 05:06:15;;;;;;;4.18;2.45;;;15.00;99.90;;;;;;5054363;28;20452;-70
2021/05/22 05:08:42;;;;;;;2.22;1.75;;;15.10;99.90;;;;;;5057078;28;20517;-70
2021/05/22 05:11:09;;;;;;;1.95;1.85;;;15.30;99.90;;;;;;5054554;28;20204;-70
2021/05/22 05:13:37;;;;;;;1.80;1.70;;;15.60;99.80;;;;;;5054376;28;20275;-70
2021/05/22 05:16:04;;;;;;;2.83;2.45;;;15.80;99.80;;;;;;5058304;28;20243;-71
2021/05/22 05:18:31;;;;;;;3.88;2.30;;;15.80;99.30;;;;;;5052791;28;20212;-70
2021/05/22 05:20:58;;;;;;;7.97;2.10;;;16.00;99.10;;;;;;5037679;28;20209;-69
2021/05/22 05:23:25;;;;;;;1.70;1.60;;;15.70;99.40;;;;;;5051769;28;20229;-70
2021/05/22 05:25:52;;;;;;;1.98;1.88;;;15.60;99.40;;;;;;5038803;28;20240;-71
2021/05/22 05:28:20;;;;;;;3.20;2.17;;;15.50;99.90;;;;;;5052817;28;20212;-71
2021/05/22 05:30:48;;;;;;;2.55;1.95;;;15.40;99.90;;;;;;5058260;28;20296;-71
2021/05/22 05:33:15;;;;;;;2.03;1.92;;;15.50;99.90;;;;;;5043468;28;20209;-71
2021/05/22 05:35:42;;;;;;;2.13;1.97;;;15.60;99.90;;;;;;5043632;28;20423;-70
2021/05/22 05:38:09;;;;;;;10.48;9.10;;;15.70;99.90;;;;;;5058085;28;20459;-70
2021/05/22 05:40:37;;;;;;;3.60;3.30;;;16.10;99.90;;;;;;5050010;28;20235;-70
2021/05/22 05:43:06;;;;;;;3.97;2.15;;;16.30;99.90;;;;;;5057487;28;20435;-71
2021/05/22 05:45:33;;;;;;;2.15;1.92;;;16.50;99.90;;;;;;5055729;28;20283;-70
2021/05/22 05:48:00;;;;;;;2.10;1.90;;;16.40;99.10;;;;;;5057141;28;20210;-71
2021/05/22 05:50:27;;;;;;;4.28;1.95;;;16.40;99.40;;;;;;5050046;28;20214;-70
2021/05/22 05:52:55;;;;;;;3.70;3.40;;;16.40;99.30;;;;;;5049167;28;20209;-70
2021/05/22 05:55:22;;;;;;;2.93;2.73;;;16.50;98.90;;;;;;5050504;28;20224;-70
2021/05/22 05:57:49;;;;;;;3.07;2.77;;;16.50;98.80;;;;;;5056858;28;20442;-72
2021/05/22 06:00:17;;;;;;;4.10;2.23;;;16.50;99.10;;;;;;5057650;28;20449;-71
2021/05/22 06:02:46;;;;;;;3.10;2.80;;;16.60;98.80;;;;;;5056963;28;20439;-71
2021/05/22 06:05:13;;;;;;;2.97;2.40;;;16.50;98.80;;;;;;5056881;28;20483;-70
2021/05/22 06:07:41;;;;;;;2.70;2.00;;;16.40;99.10;;;;;;5055614;28;20213;-70
2021/05/22 06:10:09;;;;;;;3.05;2.63;;;16.30;99.90;;;;;;5055509;28;20205;-70
2021/05/22 06:12:38;;;;;;;3.00;1.70;;;16.10;99.90;;;;;;5056453;28;20249;-71
2021/05/22 06:15:21;;;;;;;3.05;2.25;;;15.80;99.90;;;;;;5055269;28;20214;-71
2021/05/22 06:17:51;;;;;;;1.73;1.63;;;15.60;99.90;;;;;;5052234;28;20216;-71
2021/05/22 06:20:19;;;;;;;2.22;2.00;;;15.50;99.90;;;;;;5056321;28;20793;-70
2021/05/22 06:22:46;;;;;;;2.85;2.65;;;15.50;99.90;;;;;;5057415;28;20526;-70
2021/05/22 06:25:14;;;;;;;2.90;2.30;;;15.40;99.90;;;;;;5055902;28;20232;-70
2021/05/22 06:27:41;;;;;;;2.17;2.00;;;15.40;99.90;;;;;;5046322;28;20215;-71
2021/05/22 06:30:09;;;;;;;2.90;2.60;;;15.50;99.90;;;;;;5041957;28;20554;-71
2021/05/22 06:32:37;;;;;;;6.53;3.50;;;15.60;99.90;;;;;;5039709;28;20546;-70
2021/05/22 06:35:06;;;;;;;2.83;2.53;;;15.70;99.90;;;;;;5043473;28;20209;-69
2021/05/22 06:37:33;;;;;;;9.80;3.70;;;15.80;99.90;;;;;;5038374;28;20408;-69
2021/05/22 06:40:00;;;;;;;3.00;2.70;;;15.60;99.90;;;;;;5042848;28;20206;-69
2021/05/22 06:42:31;;;;;;;3.45;3.15;;;15.50;99.90;;;;;;5052301;28;20253;-68
2021/05/22 06:45:04;;;;;;;2.67;2.47;;;15.50;99.90;;;;;;5052321;28;20300;-69
2021/05/22 06:47:31;;;;;;;4.20;2.93;;;15.40;99.90;;;;;;5043605;28;21038;-69
2021/05/22 06:49:58;;;;;;;2.78;2.53;;;15.20;99.90;;;;;;5056277;28;20773;-69
2021/05/22 06:52:25;;;;;;;6.47;4.10;;;15.30;99.90;;;;;;5045211;28;20300;-69
2021/05/22 06:54:53;;;;;;;2.88;2.67;;;15.20;99.90;;;;;;5041257;28;20244;-68
2021/05/22 06:57:20;;;;;;;7.88;6.53;;;15.10;99.90;;;;;;5052478;28;20209;-69
2021/05/22 06:59:47;;;;;;;5.57;2.75;;;15.10;99.90;;;;;;5056247;28;20209;-68
2021/05/22 07:02:14;;;;;;;4.53;2.58;;;14.90;99.90;;;;;;5053449;28;20212;-67
2021/05/22 07:04:41;;;;;;;2.67;2.47;;;15.00;99.90;;;;;;5054063;28;20239;-67
2021/05/22 07:07:08;;;;;;;2.50;1.83;;;15.10;99.90;;;;;;5054143;28;20210;-67
2021/05/22 07:09:35;;;;;;;3.25;2.28;;;15.10;99.90;;;;;;5057191;28;20216;-69
2021/05/22 07:12:03;;;;;;;2.42;2.25;;;15.10;99.90;;;;;;5059694;28;20216;-67
2021/05/22 07:14:30;;;;;;;2.88;2.55;;;15.00;99.90;;;;;;5058982;28;20711;-68
2021/05/22 07:17:00;;;;;;;4.38;2.72;;;14.80;99.90;;;;;;5053059;28;20372;-69
2021/05/22 07:19:28;;;;;;;3.05;2.70;;;14.70;99.90;;;;;;5052504;28;20274;-70
2021/05/22 07:21:56;;;;;;;2.35;2.15;;;14.60;99.90;;;;;;5054028;28;20208;-69
2021/05/22 07:24:23;;;;;;;2.05;1.92;;;14.70;99.90;;;;;;5049585;28;20541;-68
2021/05/22 07:26:52;;;;;;;3.55;2.85;;;14.60;99.90;;;;;;5051835;28;20204;-70
2021/05/22 07:29:19;;;;;;;2.72;2.53;;;14.50;99.90;;;;;;5056771;28;20219;-68
2021/05/22 07:31:47;;;;;;;2.05;1.95;;;14.50;99.90;;;;;;5050955;28;20596;-69
2021/05/22 07:34:14;;;;;;;2.92;2.35;;;14.40;99.90;;;;;;5051435;28;20215;-70
2021/05/22 07:36:43;;;;;;;2.13;1.92;;;14.40;99.90;;;;;;5052986;28;20223;-69
2021/05/22 07:39:15;;;;;;;4.88;2.45;;;14.50;99.90;;;;;;5059407;28;20215;-69
2021/05/22 07:41:44;;;;;;;5.55;3.03;;;14.40;99.90;;;;;;5048175;28;20287;-69
2021/05/22 07:44:12;;;;;;;2.28;2.10;;;14.60;99.90;;;;;;5049673;28;20231;-70
2021/05/22 07:46:39;;;;;;;3.42;2.30;;;14.60;99.90;;;;;;5059581;28;20216;-70
2021/05/22 07:49:06;;;;;;;3.60;2.20;;;14.70;99.90;;;;;;5059777;28;20215;-70
2021/05/22 07:51:34;;;;;;;2.00;1.90;;;14.70;99.90;;;;;;5060698;28;20280;-70
2021/05/22 07:54:01;;;;;;;2.33;1.95;;;14.40;99.90;;;;;;5060106;28;20242;-70
2021/05/22 07:56:28;;;;;;;2.42;1.98;;;14.50;99.90;;;;;;5051003;28;20215;-70
2021/05/22 07:58:56;;;;;;;3.45;3.22;;;14.50;99.90;;;;;;5060101;28;20498;-71
2021/05/22 08:01:23;;;;;;;7.50;2.25;;;14.80;99.90;;;;;;5045486;28;20208;-71
2021/05/22 08:03:50;;;;;;;2.30;1.92;;;15.00;99.90;;;;;;5054063;28;20393;-70
2021/05/22 08:06:17;;;;;;;2.40;2.20;;;15.00;99.90;;;;;;5046778;28;20293;-70
2021/05/22 08:08:44;;;;;;;2.42;2.22;;;15.10;99.90;;;;;;5052775;28;20245;-70
2021/05/22 08:11:12;;;;;;;2.40;1.90;;;15.00;99.90;;;;;;5057920;28;20205;-70
2021/05/22 08:13:43;;;;;;;2.65;2.35;;;15.20;99.90;;;;;;5059430;28;20208;-70
2021/05/22 08:16:10;;;;;;;4.80;2.80;;;15.50;99.90;;;;;;5048986;28;20552;-70
2021/05/22 08:18:37;;;;;;;3.67;2.10;;;15.80;99.90;;;;;;5055104;28;20271;-70
2021/05/22 08:21:05;;;;;;;2.22;2.03;;;16.10;99.90;;;;;;5058652;28;20331;-71
2021/05/22 08:23:33;;;;;;;2.83;2.00;;;16.50;99.90;;;;;;5048312;28;20204;-70
2021/05/22 08:26:00;;;;;;;1.97;1.83;;;16.50;99.90;;;;;;5055073;28;20248;-71
2021/05/22 08:28:47;;;;;;;2.43;2.10;;;16.40;99.90;;;;;;5057960;28;20740;-70
2021/05/22 08:31:14;;;;;;;2.28;2.05;;;16.30;99.90;;;;;;5058082;28;20472;-70
2021/05/22 08:33:41;;;;;;;2.20;2.00;;;16.40;99.90;;;;;;5057976;28;20231;-69
2021/05/22 08:36:08;;;;;;;2.00;1.90;;;16.20;99.90;;;;;;5058638;28;20238;-69
2021/05/22 08:38:36;;;;;;;6.15;2.33;;;16.00;99.90;;;;;;5057856;28;20635;-70
2021/05/22 08:41:04;;;;;;;2.33;2.13;;;16.00;99.90;;;;;;5057365;28;20602;-69
2021/05/22 08:43:32;;;;;;;2.93;2.23;;;16.10;99.90;;;;;;5057865;28;20430;-69
2021/05/22 08:46:00;;;;;;;4.68;3.97;;;16.50;99.90;;;;;;5057337;28;20471;-69
2021/05/22 08:48:27;;;;;;;2.83;2.00;;;17.10;99.90;;;;;;5054821;28;20496;-69
2021/05/22 08:50:55;;;;;;;2.77;2.30;;;17.40;99.90;;;;;;5058196;28;20430;-70
2021/05/22 08:53:22;;;;;;;3.47;2.13;;;17.20;99.90;;;;;;5055404;28;20772;-69
2021/05/22 08:55:49;;;;;;;2.20;2.03;;;17.40;99.90;;;;;;5059489;28;20505;-74
2021/05/22 08:58:16;;;;;;;2.87;2.57;;;17.90;99.90;;;;;;5057877;28;20466;-69
2021/05/22 09:00:43;;;;;;;3.03;2.13;;;18.10;99.90;;;;;;5054149;28;20450;-69
2021/05/22 09:03:12;;;;;;;3.03;2.37;;;18.60;99.90;;;;;;5056814;28;20420;-69
2021/05/22 09:05:42;;;;;;;2.50;2.17;;;19.20;99.90;;;;;;5053816;28;20464;-70
2021/05/22 09:08:11;;;;;;;9.33;3.07;;;19.70;99.90;;;;;;5057851;28;20439;-69
2021/05/22 09:10:48;;;;;;;2.73;2.53;;;19.60;98.10;;;;;;5052779;28;20432;-70
2021/05/22 09:13:21;;;;;;;2.87;2.63;;;19.10;99.00;;;;;;5052830;28;20422;-69
2021/05/22 09:16:00;;;;;;;1.70;1.40;;;18.40;99.80;;;;;;5050327;28;20433;-69
2021/05/22 09:18:36;;;;;;;1.80;1.70;;;17.60;99.90;;;;;;5052000;28;20446;-67
2021/05/22 09:21:07;;;;;;;2.00;1.90;;;16.90;99.90;;;;;;5057088;28;20417;-68
2021/05/22 09:23:39;;;;;;;1.80;1.70;;;16.70;99.90;;;;;;5055228;28;20749;-68
2021/05/22 09:26:12;;;;;;;2.17;1.83;;;16.90;99.90;;;;;;5055576;28;20483;-68
2021/05/22 09:28:45;;;;;;;2.70;2.50;;;17.10;99.90;;;;;;5052838;28;20444;-67
2021/05/22 09:31:20;;;;;;;3.83;2.70;;;17.30;99.90;;;;;;5054163;28;20426;-70
2021/05/22 09:33:47;;;;;;;2.90;2.30;;;17.10;99.90;;;;;;5040620;28;20410;-71
2021/05/22 09:36:16;;;;;;;6.97;2.40;;;16.80;99.90;;;;;;5050039;28;20427;-68
2021/05/22 09:38:55;;;;;;;4.23;2.60;;;16.40;99.90;;;;;;5056259;28;20422;-68
2021/05/22 09:41:33;;;;;;;4.10;3.67;;;16.40;99.90;;;;;;5056473;28;20443;-69
2021/05/22 09:44:14;;;;;;;5.77;2.93;;;16.60;99.90;;;;;;5052698;28;20732;-69
2021/05/22 09:46:43;;;;;;;2.10;1.90;;;17.10;99.90;;;;;;5055726;28;20456;-68
2021/05/22 09:49:24;;;;;;;3.17;2.10;;;17.70;99.90;;;;;;5049128;28;20429;-69
2021/05/22 09:52:00;;;;;;;2.00;1.87;;;18.10;98.60;;;;;;5054048;28;20437;-68
2021/05/22 09:54:52;;;;;;;2.50;2.17;;;18.50;97.80;;;;;;5052791;28;20814;-68
2021/05/22 09:57:34;;;;;;;2.67;1.90;;;18.90;97.90;;;;;;5052646;28;20418;-68
2021/05/22 10:00:07;;;;;;;3.63;2.97;;;19.30;96.00;;;;;;5085610;28;20458;-69
2021/05/22 10:02:44;;;;;;;3.80;1.80;;;19.30;96.70;;;;;;5054993;28;20747;-68
2021/05/22 10:05:35;;;;;;;4.30;2.40;;;19.20;95.90;;;;;;5056041;28;20461;-68
2021/05/22 10:08:05;;;;;;;7.10;2.27;;;19.40;95.50;;;;;;5055907;28;20598;-69
2021/05/22 10:10:46;;;;;;;2.60;2.10;;;19.50;95.00;;;;;;5044403;28;20427;-68
2021/05/22 10:13:19;;;;;;;2.50;2.30;;;19.60;95.10;;;;;;5056807;28;20574;-68
2021/05/22 10:15:49;;;;;;;2.43;2.23;;;19.60;94.20;;;;;;5056604;28;20662;-68
2021/05/22 10:18:17;;;;;;;2.70;2.33;;;19.80;93.90;;;;;;5054424;28;20513;-66
2021/05/22 10:20:45;;;;;;;3.10;2.33;;;20.10;93.60;;;;;;5053439;28;20450;-67
2021/05/22 10:23:14;;;;;;;4.43;4.00;;;20.30;93.30;;;;;;5054053;28;20426;-67
2021/05/22 10:25:41;;;;;;;5.20;2.70;;;20.40;93.40;;;;;;5052298;28;20509;-67
2021/05/22 10:28:09;;;;;;;3.13;2.83;;;19.90;94.70;;;;;;5056282;28;20411;-67
2021/05/22 10:30:36;;;;;;;5.90;3.60;;;19.30;94.90;;;;;;5053845;28;20445;-67
2021/05/22 10:33:06;;;;;;;3.60;3.10;;;19.50;93.80;;;;;;5087366;28;20415;-67
2021/05/22 10:35:56;;;;;;;3.40;3.20;;;19.80;93.20;;;;;;5055233;28;20423;-70
2021/05/22 10:38:32;;;;;;;6.07;3.40;;;19.80;92.10;;;;;;5057097;28;20416;-67
2021/05/22 10:41:05;;;;;;;4.27;3.93;;;19.50;93.20;;;;;;5058366;28;20453;-67
2021/05/22 10:43:43;;;;;;;4.07;3.80;;;18.90;93.70;;;;;;5058767;28;20415;-69
2021/05/22 10:46:11;;;;;;;3.20;3.00;;;19.00;94.70;;;;;;5058025;28;20477;-66
2021/05/22 10:48:38;;;;;;;2.93;2.73;;;19.60;94.20;;;;;;5058500;28;20419;-69
2021/05/22 10:51:21;;;;;;;3.13;2.83;;;20.20;93.10;;;;;;5058813;28;20410;-69
2021/05/22 10:53:59;;;;;;;3.40;3.10;;;20.40;91.50;;;;;;5059745;28;20432;-68
2021/05/22 10:56:27;;;;;;;3.50;3.30;;;20.20;91.20;;;;;;5058968;28;20473;-68
2021/05/22 10:59:07;;;;;;;5.40;4.40;;;20.10;90.90;;;;;;5060153;28;20440;-67
2021/05/22 11:01:35;;;;;;;4.00;3.40;;;20.00;92.20;;;;;;5060198;28;20414;-68
2021/05/22 11:04:13;;;;;;;3.30;3.20;;;20.20;91.40;;;;;;5059887;28;20448;-68
2021/05/22 11:06:41;;;;;;;3.40;3.20;;;20.30;90.30;;;;;;5059277;28;20458;-68
2021/05/22 11:09:26;;;;;;;3.27;2.97;;;20.10;90.80;;;;;;5059353;28;20729;-67
2021/05/22 11:12:03;;;;;;;3.90;3.60;;;20.00;90.70;;;;;;5060063;28;20425;-67
2021/05/22 11:14:35;;;;;;;4.17;3.90;;;20.00;90.90;;;;;;5053493;28;20430;-68
2021/05/22 11:17:20;;;;;;;3.67;3.47;;;20.70;89.90;;;;;;5056378;28;20411;-69
2021/05/22 11:22:29;;;;;;;4.37;4.00;;;21.40;86.90;;;;;;5054104;28;20829;-69
2021/05/22 11:25:08;;;;;;;3.87;3.57;;;21.60;85.00;;;;;;5050289;28;20445;-68
2021/05/22 11:28:03;;;;;;;4.60;4.30;;;22.00;85.40;;;;;;5054644;28;20622;-68
2021/05/22 11:30:31;;;;;;;3.70;3.50;;;21.60;82.40;;;;;;5059458;28;20730;-68
2021/05/22 11:33:02;;;;;;;4.50;4.10;;;21.40;84.70;;;;;;5056305;28;20662;-68
2021/05/22 11:35:41;;;;;;;4.13;3.90;;;21.40;84.30;;;;;;5059410;28;20427;-68
2021/05/22 11:38:14;;;;;;;3.50;3.30;;;21.20;83.50;;;;;;5058146;28;20420;-68
2021/05/22 11:41:03;;;;;;;6.00;3.60;;;20.80;85.20;;;;;;5058612;28;20538;-68
2021/05/22 11:43:38;;;;;;;3.87;3.70;;;20.30;83.70;;;;;;5047581;28;20730;-67
2021/05/22 11:46:10;;;;;;;6.10;4.10;;;20.00;83.90;;;;;;5057722;28;20506;-67
2021/05/22 11:48:53;;;;;;;4.17;3.60;;;20.00;83.60;;;;;;5053041;28;20448;-68
2021/05/22 11:51:28;;;;;;;4.40;4.00;;;19.70;83.20;;;;;;5048765;28;20437;-68
2021/05/22 11:53:56;;;;;;;3.67;3.47;;;19.60;86.10;;;;;;5083030;28;20419;-69
2021/05/22 11:56:24;;;;;;;4.20;4.00;;;20.00;82.50;;;;;;5057810;28;20452;-67
2021/05/22 11:58:56;;;;;;;4.57;4.37;;;20.30;81.60;;;;;;5055434;28;20448;-68
2021/05/22 12:01:32;;;;;;;3.83;3.53;;;20.40;81.10;;;;;;5051483;28;20458;-68
2021/05/22 12:04:05;;;;;;;5.07;4.30;;;20.80;79.30;;;;;;5055812;28;20441;-68
2021/05/22 12:06:40;;;;;;;4.07;3.87;;;21.00;79.50;;;;;;5049925;28;20671;-69
2021/05/22 12:09:14;;;;;;;4.50;4.30;;;21.00;75.20;;;;;;5055618;28;20441;-68
2021/05/22 12:12:02;;;;;;;4.50;4.20;;;20.90;76.40;;;;;;5055416;28;20417;-70
2021/05/22 12:14:40;;;;;;;4.10;3.90;;;20.80;75.10;;;;;;5057296;28;20475;-67
2021/05/22 12:17:08;;;;;;;4.30;4.10;;;20.60;74.60;;;;;;5051970;28;20434;-68
2021/05/22 12:19:40;;;;;;;3.80;3.60;;;20.60;75.10;;;;;;5040449;28;20634;-67
2021/05/22 12:22:10;;;;;;;3.80;3.50;;;20.20;77.50;;;;;;5039778;28;20420;-68
2021/05/22 12:24:39;;;;;;;4.80;3.90;;;20.00;78.90;;;;;;5051887;28;20781;-69
2021/05/22 12:27:06;;;;;;;3.87;3.67;;;20.00;79.70;;;;;;5057951;28;20475;-67
2021/05/22 12:29:34;;;;;;;3.90;3.70;;;19.70;82.00;;;;;;5058635;28;20522;-69
2021/05/22 12:32:04;;;;;;;3.40;3.20;;;19.60;82.00;;;;;;5043095;28;20785;-67
2021/05/22 12:34:34;;;;;;;3.70;3.50;;;19.10;82.90;;;;;;5046850;28;20454;-69
2021/05/22 12:37:01;;;;;;;3.70;3.50;;;18.70;84.70;;;;;;5056042;28;20417;-67
2021/05/22 12:39:33;;;;;;;3.40;3.30;;;18.50;85.80;;;;;;5058036;28;20453;-68
2021/05/22 12:42:11;;;;;;;4.17;3.90;;;18.80;87.50;;;;;;5044575;28;20457;-68
2021/05/22 12:44:39;;;;;;;3.80;3.50;;;19.00;86.10;;;;;;5049386;28;20783;-68
2021/05/22 12:47:06;;;;;;;3.77;3.57;;;18.70;85.60;;;;;;5053996;28;20484;-67
2021/05/22 12:49:33;;;;;;;4.10;3.70;;;18.80;87.20;;;;;;5058940;28;20665;-68
2021/05/22 12:52:12;;;;;;;3.80;3.53;;;18.80;84.80;;;;;;5057764;28;20445;-66
2021/05/22 12:54:39;;;;;;;4.70;3.50;;;18.70;83.00;;;;;;5057686;28;20439;-68
2021/05/22 12:57:10;;;;;;;4.33;4.10;;;18.70;83.10;;;;;;5058087;28;20481;-67
2021/05/22 12:59:51;;;;;;;3.73;3.63;;;19.00;84.80;;;;;;5057690;28;20440;-66
2021/05/22 13:02:24;;;;;;;4.10;3.80;;;19.40;80.70;;;;;;5057208;28;20409;-67
2021/05/22 13:05:13;;;;;;;3.93;3.60;;;19.40;76.90;;;;;;5059062;28;20445;-68